Time;durP1;ratioP1;P1;durP2;ratioP2;P2;SDS_P1;SDS_P2;PMS_P1;PMS_P2;Temp;Humidity;BMP_temperature;BMP_pressure;BME280_temperature;BME280_humidity;BME280_pressure;Samples;Min_cycle;Max_cycle;Signal;HPM_P1;HPM_P2
2022/12/27 00:01:37;;;;;;;25.67;10.05;;;;;;;10.50;68.09;102198.06;5098400;28;20044;-68
2022/12/27 00:04:04;;;;;;;10.23;3.97;;;;;;;10.69;69.64;102188.13;5097506;28;20036;-69
2022/12/27 00:06:32;;;;;;;14.05;3.35;;;;;;;10.11;64.30;102199.75;5089805;28;20059;-69
2022/12/27 00:09:00;;;;;;;13.10;2.97;;;;;;;10.12;65.57;102193.97;5099443;28;20059;-70
2022/12/27 00:11:28;;;;;;;10.68;3.13;;;;;;;10.79;71.06;102196.38;5079882;28;20067;-69
2022/12/27 00:14:07;;;;;;;11.43;2.92;;;;;;;10.29;68.95;102209.38;5097705;28;20044;-70
2022/12/27 00:16:34;;;;;;;11.20;2.78;;;;;;;10.22;69.31;102206.88;5098930;28;20044;-69
2022/12/27 00:19:02;;;;;;;13.52;2.85;;;;;;;9.78;66.87;102211.22;5099185;28;20047;-69
2022/12/27 00:21:30;;;;;;;14.50;3.38;;;;;;;10.23;71.80;102210.47;5098665;28;20059;-69
2022/12/27 00:23:58;;;;;;;13.85;3.30;;;;;;;10.43;69.19;102203.03;5099060;28;20486;-69
2022/12/27 00:26:29;;;;;;;16.08;3.00;;;;;;;10.66;70.87;102210.72;5097883;28;20427;-69
2022/12/27 00:28:58;;;;;;;18.60;3.40;;;;;;;10.51;70.17;102205.25;5099098;28;20055;-70
2022/12/27 00:31:28;;;;;;;15.05;3.25;;;;;;;10.31;70.30;102212.66;5097221;28;20052;-70
2022/12/27 00:33:58;;;;;;;13.10;3.15;;;;;;;9.81;67.10;102210.66;5080728;28;20048;-69
2022/12/27 00:36:28;;;;;;;14.70;3.70;;;;;;;10.15;70.99;102214.59;5096688;28;20060;-70
2022/12/27 00:38:57;;;;;;;15.88;3.42;;;;;;;10.08;70.63;102216.75;5098917;28;20423;-69
2022/12/27 00:41:24;;;;;;;16.65;3.50;;;;;;;10.29;72.77;102215.69;5078442;28;20052;-69
2022/12/27 00:43:51;;;;;;;12.15;3.40;;;;;;;10.33;72.88;102219.56;5098510;28;20059;-70
2022/12/27 00:46:19;;;;;;;15.63;3.47;;;;;;;9.69;67.42;102221.91;5097679;28;20055;-69
2022/12/27 00:48:46;;;;;;;14.57;3.38;;;;;;;10.14;72.29;102219.28;5097269;28;20400;-68
2022/12/27 00:51:16;;;;;;;12.20;3.47;;;;;;;9.82;70.37;102224.16;5097412;28;20542;-69
2022/12/27 00:53:44;;;;;;;15.75;3.33;;;;;;;10.14;73.38;102222.03;5080403;28;20044;-69
2022/12/27 00:56:21;;;;;;;13.10;3.58;;;;;;;10.57;72.03;102223.41;5098137;28;20044;-69
2022/12/27 00:58:57;;;;;;;9.57;3.22;;;;;;;10.58;69.86;102229.75;5097168;28;20426;-69
2022/12/27 01:01:26;;;;;;;12.80;3.20;;;;;;;10.15;68.88;102228.34;5097385;28;20071;-68
2022/12/27 01:03:55;;;;;;;13.32;3.30;;;;;;;10.59;72.20;102228.63;5097226;28;20059;-68
2022/12/27 01:06:27;;;;;;;16.83;3.75;;;;;;;10.35;69.06;102236.66;5094901;28;20056;-67
2022/12/27 01:08:55;;;;;;;12.98;3.85;;;;;;;10.03;70.16;102233.28;5079794;28;20055;-68
2022/12/27 01:11:24;;;;;;;14.65;3.47;;;;;;;10.21;71.88;102230.03;5097124;28;20641;-68
2022/12/27 01:13:54;;;;;;;14.70;3.92;;;;;;;10.23;69.80;102244.34;5096563;28;20376;-68
2022/12/27 01:16:23;;;;;;;15.57;4.07;;;;;;;10.70;72.77;102249.59;5096961;28;20044;-67
2022/12/27 01:18:51;;;;;;;14.45;3.38;;;;;;;10.45;69.45;102244.06;5097403;28;20384;-69
2022/12/27 01:21:20;;;;;;;18.80;3.67;;;;;;;9.65;68.53;102240.06;5096975;28;20514;-67
2022/12/27 01:23:47;;;;;;;14.85;3.47;;;;;;;10.45;72.44;102236.66;5096952;28;20048;-67
2022/12/27 01:26:20;;;;;;;16.95;3.38;;;;;;;10.62;72.29;102247.38;5094439;28;20044;-67
2022/12/27 01:28:48;;;;;;;20.10;3.45;;;;;;;10.66;72.30;102243.81;5079323;28;20052;-67
2022/12/27 01:31:18;;;;;;;17.65;3.47;;;;;;;10.62;71.68;102245.44;5096796;28;20052;-68
2022/12/27 01:33:45;;;;;;;14.32;3.38;;;;;;;10.15;72.28;102242.97;5061682;28;20059;-68
2022/12/27 01:36:21;;;;;;;11.07;3.15;;;;;;;10.48;72.50;102247.09;5096692;28;20051;-68
2022/12/27 01:38:51;;;;;;;11.38;2.78;;;;;;;10.68;71.25;102247.09;5097151;28;20050;-67
2022/12/27 01:44:38;;;;;;;16.27;2.83;;;;;;;10.80;72.88;102242.13;5096973;28;20480;-68
2022/12/27 01:47:44;;;;;;;13.85;3.47;;;;;;;10.56;67.92;102241.06;5096605;28;20059;-68
2022/12/27 01:50:46;;;;;;;15.38;3.28;;;;;;;10.59;72.31;102253.44;5083351;28;20058;-68
2022/12/27 01:53:22;;;;;;;17.05;3.72;;;;;;;10.90;71.81;102244.88;5076480;28;20045;-67
2022/12/27 01:55:55;;;;;;;13.27;3.10;;;;;;;10.62;73.04;102247.38;5061625;28;20399;-68
2022/12/27 01:58:30;;;;;;;15.75;3.65;;;;;;;10.92;72.17;102247.34;5078360;28;20055;-69
2022/12/27 02:01:00;;;;;;;13.80;3.35;;;;;;;10.96;70.44;102253.97;5078270;28;20044;-68
2022/12/27 02:03:33;;;;;;;12.40;3.30;;;;;;;10.95;70.85;102258.63;5096482;28;20052;-68
2022/12/27 02:06:04;;;;;;;10.57;2.67;;;;;;;10.19;70.10;102259.75;5095603;28;20048;-68
2022/12/27 02:09:00;;;;;;;17.08;3.28;;;;;;;10.65;72.75;102266.13;5078706;28;20051;-68
2022/12/27 02:14:32;;;;;;;14.30;3.45;;;;;;;10.58;72.19;102280.19;5080085;28;20124;-67
2022/12/27 02:17:02;;;;;;;16.33;3.88;;;;;;;10.36;68.76;102268.59;5106522;28;20056;-68
2022/12/27 02:19:39;;;;;;;12.27;3.13;;;;;;;10.21;72.97;102276.84;5077940;28;20048;-67
2022/12/27 02:22:08;;;;;;;13.70;3.60;;;;;;;10.66;73.88;102270.53;5096074;28;20387;-67
2022/12/27 02:24:55;;;;;;;14.02;2.92;;;;;;;10.86;73.33;102270.53;5096416;28;20044;-67
2022/12/27 02:28:04;;;;;;;13.68;3.30;;;;;;;10.51;69.71;102267.78;5095797;28;20048;-67
2022/12/27 02:30:32;;;;;;;14.10;3.40;;;;;;;10.68;72.69;102258.13;5075958;28;20058;-67
2022/12/27 02:33:03;;;;;;;17.75;3.80;;;;;;;10.51;71.29;102262.28;5084672;28;20054;-67
2022/12/27 02:35:35;;;;;;;11.93;3.45;;;;;;;10.32;70.10;102256.47;5077706;28;20055;-68
2022/12/27 02:38:02;;;;;;;21.15;4.00;;;;;;;10.54;72.55;102257.03;5077094;28;20048;-68
2022/12/27 02:55:22;;;;;;;18.08;3.45;;;;;;;9.80;71.32;102266.78;5075595;28;20055;-67
2022/12/27 02:58:12;;;;;;;17.65;3.88;;;;;;;9.70;73.60;102261.25;5057485;28;20079;-68
2022/12/27 03:03:51;;;;;;;13.32;3.42;;;;;;;10.08;73.36;102263.56;5068060;28;20056;-68
2022/12/27 03:06:40;;;;;;;13.27;3.20;;;;;;;10.08;71.89;102277.31;5110565;28;20056;-67
2022/12/27 03:15:56;;;;;;;12.07;2.80;;;;;;;9.55;67.76;102284.06;5095155;28;20384;-67
2022/12/27 03:18:27;;;;;;;16.80;3.00;;;;;;;9.47;69.17;102279.03;5075289;28;20075;-67
2022/12/27 03:26:32;;;;;;;15.32;3.55;;;;;;;9.37;74.98;102267.16;5073241;28;20079;-67
2022/12/27 03:34:41;;;;;;;11.20;3.10;;;;;;;10.06;73.94;102271.25;5093973;28;20044;-67
2022/12/27 03:40:11;;;;;;;11.43;3.15;;;;;;;9.65;72.04;102280.50;5094587;28;20060;-68
2022/12/27 03:48:25;;;;;;;16.48;3.88;;;;;;;10.15;73.28;102286.19;5079508;28;20410;-68
2022/12/27 03:50:54;;;;;;;10.70;2.60;;;;;;;10.40;73.61;102285.41;5092680;28;20044;-67
2022/12/27 03:53:41;;;;;;;15.90;3.33;;;;;;;9.64;71.79;102285.16;5077421;28;20044;-67
2022/12/27 03:56:09;;;;;;;8.45;2.97;;;;;;;10.06;73.62;102277.59;5060018;28;20415;-67
2022/12/27 03:58:36;;;;;;;19.30;3.45;;;;;;;10.04;73.29;102270.72;5077159;28;20044;-67
2022/12/27 04:01:03;;;;;;;13.10;3.22;;;;;;;10.25;71.21;102274.38;5076462;28;20387;-68
2022/12/27 04:03:31;;;;;;;12.77;3.30;;;;;;;10.09;71.84;102273.53;5094831;28;20063;-67
2022/12/27 04:05:58;;;;;;;15.52;3.45;;;;;;;9.45;69.64;102275.72;5093865;28;20473;-67
2022/12/27 04:36:06;;;;;;;9.80;2.88;;;;;;;10.30;73.05;102277.97;5097827;28;20075;-68
2022/12/27 04:38:33;;;;;;;14.68;3.50;;;;;;;9.97;71.02;102278.41;5098320;28;20043;-67
2022/12/27 04:55:18;;;;;;;15.85;3.00;;;;;;;10.51;74.16;102267.78;5097853;28;20063;-67
2022/12/27 04:57:45;;;;;;;14.65;2.80;;;;;;;10.71;72.84;102273.28;5079347;28;20059;-68
2022/12/27 05:03:01;;;;;;;15.43;3.25;;;;;;;10.57;73.23;102275.75;5097311;28;20056;-67
2022/12/27 05:05:29;;;;;;;14.00;3.03;;;;;;;10.55;74.14;102279.91;5078976;28;20063;-67
2022/12/27 05:16:15;;;;;;;12.50;3.00;;;;;;;9.41;69.26;102273.81;5078506;28;20048;-68
2022/12/27 05:18:42;;;;;;;17.17;3.58;;;;;;;9.58;73.31;102279.91;5097489;28;20067;-68
2022/12/27 05:21:09;;;;;;;11.10;3.35;;;;;;;10.14;74.55;102271.59;5095720;28;20051;-68
2022/12/27 05:26:32;;;;;;;18.50;3.30;;;;;;;10.29;74.59;102270.78;5097183;28;20059;-67
2022/12/27 05:28:59;;;;;;;12.45;3.00;;;;;;;10.18;74.59;102266.38;5097511;28;20044;-67
2022/12/27 05:31:28;;;;;;;15.15;3.78;;;;;;;10.35;74.61;102275.22;5094847;28;20044;-68
2022/12/27 05:33:56;;;;;;;8.02;2.80;;;;;;;10.59;73.26;102270.81;5078441;28;20610;-67
2022/12/27 05:36:24;;;;;;;10.18;3.10;;;;;;;10.68;74.81;102273.84;5095584;28;20051;-67
2022/12/27 05:38:51;;;;;;;13.98;3.08;;;;;;;11.03;73.24;102260.00;5096658;28;20048;-67
2022/12/27 05:41:19;;;;;;;10.13;2.90;;;;;;;10.27;70.30;102264.72;5095396;28;20048;-68
2022/12/27 05:43:46;;;;;;;16.02;3.13;;;;;;;10.17;72.55;102268.31;5078596;28;20048;-68
2022/12/27 05:46:16;;;;;;;10.63;3.20;;;;;;;10.29;72.37;102276.28;5096563;28;20040;-67
2022/12/27 05:48:44;;;;;;;19.42;3.45;;;;;;;10.30;73.34;102274.38;5096880;28;20506;-68
2022/12/27 05:51:14;;;;;;;13.60;3.03;;;;;;;10.74;73.16;102272.75;5078418;28;20044;-68
2022/12/27 05:53:42;;;;;;;15.45;3.13;;;;;;;10.76;71.33;102270.50;5078874;28;20419;-67
2022/12/27 05:56:15;;;;;;;11.00;3.03;;;;;;;10.67;71.66;102259.22;5096389;28;20059;-67
2022/12/27 05:58:42;;;;;;;11.25;3.38;;;;;;;10.85;72.27;102263.34;5077738;28;20425;-67
2022/12/27 06:01:12;;;;;;;14.25;3.17;;;;;;;10.96;73.40;102262.22;5094931;28;20048;-67
2022/12/27 06:03:39;;;;;;;16.13;3.00;;;;;;;10.74;73.12;102256.22;5077864;28;20058;-67
2022/12/27 06:06:07;;;;;;;11.27;2.63;;;;;;;10.66;72.40;102243.81;5077476;28;20052;-67
2022/12/27 06:08:35;;;;;;;11.27;2.50;;;;;;;10.69;71.01;102245.16;5096604;28;20056;-67
2022/12/27 06:11:09;;;;;;;16.45;3.25;;;;;;;10.66;72.74;102238.28;5096195;28;20040;-67
2022/12/27 06:13:37;;;;;;;14.63;2.80;;;;;;;10.71;73.50;102243.78;5096526;28;20055;-68
2022/12/27 06:16:06;;;;;;;10.02;2.88;;;;;;;11.03;73.31;102247.06;5077566;28;20483;-68
2022/12/27 06:18:35;;;;;;;15.95;3.30;;;;;;;10.99;72.26;102243.19;5077609;28;20055;-68
2022/12/27 06:21:12;;;;;;;11.27;3.20;;;;;;;11.00;72.23;102236.56;5095949;28;20048;-68
2022/12/27 06:23:41;;;;;;;9.82;3.00;;;;;;;10.96;71.83;102238.25;5094704;28;20051;-67
2022/12/27 06:26:11;;;;;;;13.70;3.05;;;;;;;10.99;71.41;102243.19;5093639;28;20039;-67
2022/12/27 06:28:39;;;;;;;19.00;3.53;;;;;;;11.07;71.63;102253.66;5095959;28;20051;-67
2022/12/27 06:31:09;;;;;;;11.45;2.83;;;;;;;11.05;71.46;102252.28;5095605;28;20039;-67
2022/12/27 06:33:36;;;;;;;12.48;3.20;;;;;;;11.12;71.76;102245.34;5096180;28;20052;-67
2022/12/27 06:36:08;;;;;;;12.40;3.20;;;;;;;10.63;70.89;102244.38;5077557;28;20513;-67
2022/12/27 06:38:36;;;;;;;13.88;3.35;;;;;;;10.73;73.33;102241.59;5095045;28;20054;-67
2022/12/27 06:41:05;;;;;;;14.13;3.13;;;;;;;10.87;72.72;102239.09;5095051;28;20052;-68
2022/12/27 06:43:33;;;;;;;10.68;3.10;;;;;;;10.95;72.80;102238.50;5091380;28;20052;-67
2022/12/27 06:46:04;;;;;;;9.05;3.00;;;;;;;10.85;72.09;102236.59;5094245;28;20044;-68
2022/12/27 06:48:32;;;;;;;10.45;3.00;;;;;;;11.08;70.63;102237.94;5095832;28;20506;-68
2022/12/27 06:51:03;;;;;;;15.52;3.20;;;;;;;10.48;70.95;102238.84;5058464;28;20055;-68
2022/12/27 06:53:30;;;;;;;14.45;3.47;;;;;;;10.72;71.33;102248.19;5092802;28;20052;-67
2022/12/27 06:56:05;;;;;;;12.55;3.67;;;;;;;10.62;72.00;102248.19;5093659;28;20044;-69
2022/12/27 06:58:33;;;;;;;14.13;3.65;;;;;;;10.22;72.48;102242.69;5095625;28;20052;-67
2022/12/27 07:01:08;;;;;;;16.33;3.80;;;;;;;10.39;73.77;102247.94;5095248;28;20048;-68
2022/12/27 07:03:36;;;;;;;14.95;3.53;;;;;;;10.41;72.34;102243.00;5075424;28;20055;-67
2022/12/27 07:06:06;;;;;;;10.85;3.33;;;;;;;10.56;73.18;102237.47;5066456;28;20051;-68
2022/12/27 07:08:35;;;;;;;14.02;3.63;;;;;;;10.32;71.69;102242.69;5095541;28;20052;-67
2022/12/27 07:11:05;;;;;;;13.43;3.60;;;;;;;10.39;71.04;102237.72;5076310;28;20056;-68
2022/12/27 07:13:34;;;;;;;13.77;3.50;;;;;;;10.32;71.44;102241.88;5095754;28;20059;-68
2022/12/27 07:16:04;;;;;;;14.93;3.85;;;;;;;9.76;73.55;102246.44;5094688;28;20051;-63
2022/12/27 07:18:31;;;;;;;15.93;4.00;;;;;;;9.69;73.81;102254.13;5095500;28;20047;-62
2022/12/27 07:21:05;;;;;;;12.77;3.83;;;;;;;9.78;72.87;102258.81;5076174;28;20044;-63
2022/12/27 07:23:33;;;;;;;13.93;3.88;;;;;;;10.10;75.01;102261.41;5075051;28;20040;-63
2022/12/27 07:26:05;;;;;;;11.15;3.45;;;;;;;10.69;75.08;102264.44;5076832;28;20106;-62
2022/12/27 07:28:32;;;;;;;11.85;3.67;;;;;;;10.87;73.29;102264.72;5077607;28;20066;-67
2022/12/27 07:31:08;;;;;;;12.65;3.00;;;;;;;10.31;69.79;102263.06;5093715;28;20047;-67
2022/12/27 07:33:36;;;;;;;13.20;3.60;;;;;;;9.24;67.38;102270.41;5077177;28;20052;-68
2022/12/27 07:36:05;;;;;;;9.52;3.60;;;;;;;9.26;73.10;102274.53;5094723;28;20051;-69
2022/12/27 07:38:32;;;;;;;14.43;4.03;;;;;;;9.52;74.70;102272.75;5095180;28;20075;-70
2022/12/27 07:41:01;;;;;;;12.57;3.60;;;;;;;9.93;74.72;102278.13;5076603;28;20048;-69
2022/12/27 07:43:29;;;;;;;13.68;3.35;;;;;;;9.08;69.08;102275.00;5094605;28;20044;-69
2022/12/27 07:46:04;;;;;;;11.95;3.25;;;;;;;9.38;72.26;102268.84;5068819;28;20135;-69
2022/12/27 07:48:31;;;;;;;10.90;3.72;;;;;;;9.76;75.75;102269.25;5094966;28;20079;-69
2022/12/27 07:50:59;;;;;;;8.85;3.15;;;;;;;9.27;71.55;102261.63;5096229;28;20048;-69
2022/12/27 07:53:28;;;;;;;11.13;3.22;;;;;;;9.52;75.02;102278.25;5092004;28;20052;-62
2022/12/27 07:55:55;;;;;;;11.85;3.55;;;;;;;9.73;75.58;102272.56;5087745;28;20155;-68
2022/12/27 07:58:24;;;;;;;13.82;4.50;;;;;;;9.67;79.87;102275.56;5093326;28;20040;-64
2022/12/27 08:00:51;;;;;;;12.93;3.35;;;;;;;9.21;73.35;102271.75;5077676;28;20047;-63
2022/12/27 08:03:19;;;;;;;8.75;3.50;;;;;;;9.86;78.56;102273.97;5092756;28;20056;-61
2022/12/27 08:05:48;;;;;;;16.23;4.15;;;;;;;10.56;79.39;102268.59;5058615;28;20356;-62
2022/12/27 08:08:17;;;;;;;20.05;3.88;;;;;;;10.29;75.66;102276.28;5095771;28;20455;-60
2022/12/27 08:10:44;;;;;;;14.07;3.45;;;;;;;10.67;77.14;102272.19;5078939;28;20054;-61
2022/12/27 08:13:11;;;;;;;15.23;3.40;;;;;;;10.86;74.54;102265.00;5074708;28;20404;-61
2022/12/27 08:15:40;;;;;;;13.05;3.53;;;;;;;11.01;71.50;102273.25;5097691;28;20052;-62
2022/12/27 08:18:08;;;;;;;14.55;3.22;;;;;;;11.04;70.18;102268.00;5063278;28;20056;-62
2022/12/27 08:20:35;;;;;;;20.00;4.15;;;;;;;11.09;69.41;102276.25;5095672;28;20052;-69
2022/12/27 08:23:03;;;;;;;14.32;3.42;;;;;;;11.02;68.56;102281.22;5075113;28;20044;-63
2022/12/27 08:25:30;;;;;;;11.07;3.67;;;;;;;10.98;68.36;102279.31;5076737;28;20060;-63
2022/12/27 08:28:04;;;;;;;15.90;3.78;;;;;;;11.11;67.87;102282.31;5088416;28;20038;-63
2022/12/27 08:30:32;;;;;;;11.10;3.53;;;;;;;11.14;67.66;102287.28;5093281;28;20059;-62
2022/12/27 08:33:00;;;;;;;12.55;3.53;;;;;;;11.02;67.35;102278.47;5088274;28;20051;-62
2022/12/27 08:35:28;;;;;;;13.40;3.88;;;;;;;11.07;65.96;102283.19;5093104;28;20047;-63
2022/12/27 08:38:15;;;;;;;19.90;3.80;;;;;;;11.17;66.56;102280.38;5096626;28;20044;-63
2022/12/27 08:40:44;;;;;;;11.02;3.75;;;;;;;11.05;67.17;102279.88;5095491;28;20100;-63
2022/12/27 08:43:11;;;;;;;16.42;3.97;;;;;;;11.14;66.27;102292.00;5078839;28;20036;-62
2022/12/27 08:45:39;;;;;;;15.43;4.13;;;;;;;11.02;66.46;102285.91;5094643;28;20040;-63
2022/12/27 08:48:07;;;;;;;17.30;4.10;;;;;;;11.17;66.72;102292.25;5070906;28;20041;-62
2022/12/27 08:50:34;;;;;;;13.57;4.05;;;;;;;11.14;65.98;102300.25;5093873;28;20035;-63
2022/12/27 08:53:03;;;;;;;15.77;3.97;;;;;;;10.90;65.43;102294.50;5094161;28;20059;-64
2022/12/27 08:55:31;;;;;;;12.90;3.92;;;;;;;11.03;65.95;102298.63;5096553;28;20062;-63
2022/12/27 08:58:04;;;;;;;13.25;3.28;;;;;;;11.18;66.15;102304.09;5094109;28;20398;-63
2022/12/27 09:00:39;;;;;;;12.88;3.65;;;;;;;11.05;65.31;102299.16;5096866;28;20052;-62
2022/12/27 09:03:08;;;;;;;16.30;4.20;;;;;;;11.07;65.19;102303.28;5095412;28;20059;-63
2022/12/27 09:05:35;;;;;;;12.02;3.55;;;;;;;10.43;67.88;102304.94;5094898;28;20059;-62
2022/12/27 09:08:09;;;;;;;16.85;4.20;;;;;;;10.65;67.25;102307.47;5092002;28;20040;-65
2022/12/27 09:10:37;;;;;;;17.48;4.57;;;;;;;10.92;67.31;102317.09;5090424;28;20130;-67
2022/12/27 09:13:05;;;;;;;12.45;3.70;;;;;;;11.09;67.46;102316.78;5075615;28;20056;-63
2022/12/27 09:15:32;;;;;;;19.13;4.00;;;;;;;11.24;67.34;102306.56;5089522;28;20052;-62
2022/12/27 09:18:01;;;;;;;11.65;3.90;;;;;;;11.30;68.10;102308.22;5075155;28;20044;-64
2022/12/27 09:20:29;;;;;;;11.45;3.45;;;;;;;11.22;67.15;102302.44;5094240;28;20063;-60
2022/12/27 09:22:57;;;;;;;11.75;4.20;;;;;;;10.52;64.30;102300.56;5074357;28;20044;-63
2022/12/27 09:25:24;;;;;;;13.68;4.65;;;;;;;9.82;69.27;102308.63;5091899;28;20040;-65
2022/12/27 09:27:53;;;;;;;12.88;4.57;;;;;;;10.01;70.25;102312.53;5083966;28;20046;-63
2022/12/27 09:30:21;;;;;;;17.00;4.57;;;;;;;9.43;67.56;102315.63;5093182;28;20055;-66
2022/12/27 09:32:48;;;;;;;16.02;5.20;;;;;;;9.30;70.91;102310.56;5073239;28;20040;-65
2022/12/27 09:35:15;;;;;;;23.20;7.15;;;;;;;9.19;69.21;102314.38;5095715;28;20052;-62
2022/12/27 09:37:43;;;;;;;19.20;5.95;;;;;;;9.84;74.14;102315.53;5090078;28;20040;-62
2022/12/27 09:40:14;;;;;;;12.57;4.57;;;;;;;9.29;69.19;102325.44;5092598;28;20793;-64
2022/12/27 09:42:42;;;;;;;17.75;5.03;;;;;;;9.29;71.12;102333.69;5100345;28;20046;-62
2022/12/27 09:45:50;;;;;;;14.68;5.13;;;;;;;9.74;72.42;102329.25;5080121;28;20056;-70
2022/12/27 09:48:30;;;;;;;13.20;4.55;;;;;;;9.51;68.94;102334.34;5089234;28;20052;-63
2022/12/27 09:51:13;;;;;;;13.60;4.72;;;;;;;9.05;68.90;102328.56;5059834;28;20491;-73
2022/12/27 09:54:13;;;;;;;14.35;4.10;;;;;;;9.58;73.34;102330.28;5074637;28;20051;-61
2022/12/27 09:56:40;;;;;;;20.15;10.15;;;;;;;10.06;72.13;102332.66;5072422;28;20043;-63
2022/12/27 09:59:32;;;;;;;27.02;14.52;;;;;;;9.53;69.27;102323.91;5091060;28;20062;-63
2022/12/27 10:01:59;;;;;;;15.30;4.70;;;;;;;9.76;72.82;102321.53;5092247;28;20084;-68
2022/12/27 10:04:32;;;;;;;13.98;4.68;;;;;;;9.88;72.61;102327.66;5073507;28;20525;-64
2022/12/27 10:07:26;;;;;;;17.65;4.47;;;;;;;10.48;71.35;102317.94;5091928;28;20598;-65
2022/12/27 10:10:16;;;;;;;12.93;4.60;;;;;;;10.76;71.18;102315.44;5076780;28;20044;-65
2022/12/27 10:13:09;;;;;;;43.33;12.07;;;;;;;10.46;68.60;102314.63;5082084;28;20047;-65
2022/12/27 10:15:59;;;;;;;34.55;17.83;;;;;;;10.16;68.52;102313.44;5074945;28;20056;-63
2022/12/27 10:18:33;;;;;;;30.13;16.38;;;;;;;9.72;67.89;102303.94;5100882;27;20047;-63
2022/12/27 10:21:15;;;;;;;27.33;12.77;;;;;;;9.69;71.34;102296.19;5085517;28;20039;-65
2022/12/27 10:23:44;;;;;;;23.60;9.75;;;;;;;9.81;71.69;102302.31;5086266;28;20525;-64
2022/12/27 10:26:13;;;;;;;13.02;4.30;;;;;;;9.70;69.61;102299.78;5075811;28;20403;-65
2022/12/27 10:28:43;;;;;;;11.90;3.88;;;;;;;9.32;69.02;102302.91;5090971;28;20056;-68
2022/12/27 10:31:14;;;;;;;;;;;;;;;9.46;69.57;102299.41;5092958;28;20048;-66
2022/12/27 10:33:45;;;;;;;17.25;5.13;;;;;;;9.51;71.20;102302.19;5085268;28;20713;-67
2022/12/27 10:36:20;;;;;;;17.73;4.05;;;;;;;9.79;70.72;102300.91;5076436;28;20055;-65
2022/12/27 10:38:50;;;;;;;14.93;4.00;;;;;;;10.01;72.24;102298.78;5092547;28;20051;-68
2022/12/27 10:41:30;;;;;;;23.67;4.30;;;;;;;9.83;67.92;102296.53;5088369;28;20040;-64
2022/12/27 10:43:58;;;;;;;13.63;4.20;;;;;;;9.94;70.92;102296.28;5099994;28;20056;-63
2022/12/27 10:46:30;;;;;;;20.77;4.20;;;;;;;9.93;70.65;102297.41;5092193;28;20055;-65
2022/12/27 10:49:05;;;;;;;14.60;5.13;;;;;;;9.96;69.93;102298.75;5074811;28;20052;-63
2022/12/27 10:51:50;;;;;;;29.13;9.45;;;;;;;9.85;67.11;102297.09;5074218;28;20462;-64
2022/12/27 10:54:22;;;;;;;30.85;14.00;;;;;;;10.14;71.32;102292.81;5090115;28;20391;-65
2022/12/27 10:56:50;;;;;;;13.05;4.50;;;;;;;10.15;71.06;102297.19;5073669;28;20040;-63
2022/12/27 10:59:27;;;;;;;40.38;18.05;;;;;;;10.05;67.52;102303.50;5076049;28;20415;-64
2022/12/27 11:02:00;;;;;;;64.97;26.33;;;;;;;10.48;67.91;102295.88;5088387;28;20048;-63
2022/12/27 11:04:29;;;;;;;53.00;19.25;;;;;;;10.47;70.57;102302.47;5090795;28;20067;-64
2022/12/27 11:07:03;;;;;;;36.97;13.23;;;;;;;10.58;69.13;102296.72;5087100;28;20048;-64
2022/12/27 11:09:37;;;;;;;57.40;24.25;;;;;;;10.93;68.27;102298.63;5075049;28;20061;-65
2022/12/27 11:12:31;;;;;;;27.42;12.65;;;;;;;11.31;68.23;102285.03;5093253;28;20484;-64
2022/12/27 11:15:05;;;;;;;16.35;5.53;;;;;;;11.65;67.52;102285.22;5072820;28;20059;-64
2022/12/27 11:17:37;;;;;;;13.73;4.30;;;;;;;11.48;65.45;102283.88;5091874;28;20075;-64
2022/12/27 11:20:22;;;;;;;13.10;3.90;;;;;;;11.45;65.14;102274.25;5072899;28;20059;-64
2022/12/27 11:22:52;;;;;;;13.20;3.75;;;;;;;11.74;66.10;102271.66;5096566;28;20044;-63
2022/12/27 11:25:20;;;;;;;20.90;4.78;;;;;;;11.76;65.63;102252.88;5098369;28;20514;-64
2022/12/27 11:27:54;;;;;;;15.65;4.28;;;;;;;11.42;64.07;102246.38;5093526;28;20530;-66
2022/12/27 11:30:38;;;;;;;9.68;3.05;;;;;;;11.05;61.62;102236.56;5069251;28;20388;-65
2022/12/27 11:33:32;;;;;;;15.95;4.28;;;;;;;11.03;61.15;102226.94;5094305;28;20055;-66
2022/12/27 11:35:59;;;;;;;12.35;3.63;;;;;;;11.70;64.66;102229.19;5070457;28;20052;-66
2022/12/27 11:38:29;;;;;;;17.63;4.43;;;;;;;11.84;63.66;102213.63;5059551;28;20410;-68
2022/12/27 11:41:07;;;;;;;10.02;3.83;;;;;;;11.83;63.68;102211.97;5094445;28;20048;-66
2022/12/27 11:43:44;;;;;;;11.20;3.97;;;;;;;12.04;62.46;102206.03;5094864;28;20495;-65
2022/12/27 11:46:34;;;;;;;14.52;5.13;;;;;;;11.94;61.21;102195.03;5090009;28;20063;-65
2022/12/27 11:49:05;;;;;;;14.80;5.50;;;;;;;12.04;61.97;102199.69;5059029;28;20048;-65
2022/12/27 11:51:54;;;;;;;12.30;3.72;;;;;;;11.97;60.98;102194.50;5092576;28;20048;-66
2022/12/27 11:54:43;;;;;;;11.43;3.65;;;;;;;12.05;60.65;102193.88;5084250;28;20055;-65
2022/12/27 11:57:26;;;;;;;11.93;3.22;;;;;;;12.05;60.53;102198.56;5092873;28;20040;-66
2022/12/27 12:00:21;;;;;;;11.10;2.70;;;;;;;12.04;59.65;102207.97;5093694;28;20048;-65
2022/12/27 12:02:57;;;;;;;11.35;3.08;;;;;;;12.17;59.87;102210.06;5057359;28;20044;-66
2022/12/27 12:05:52;;;;;;;8.32;2.55;;;;;;;11.74;59.62;102213.69;5071729;28;20067;-65
2022/12/27 12:08:49;;;;;;;8.77;2.67;;;;;;;11.90;58.12;102206.97;5020195;28;20064;-65
2022/12/27 12:11:30;;;;;;;15.60;5.35;;;;;;;11.70;57.93;102204.34;5035261;28;20048;-68
2022/12/27 12:15:02;;;;;;;20.13;11.38;;;;;;;11.93;58.53;102201.69;5041143;28;20059;-64
2022/12/27 12:17:39;;;;;;;12.02;4.10;;;;;;;12.13;58.11;102193.25;4970701;28;20054;-65
2022/12/27 12:20:16;;;;;;;9.40;3.42;;;;;;;12.44;59.47;102197.44;5074526;28;20057;-65
2022/12/27 12:23:12;;;;;;;10.90;3.25;;;;;;;12.01;57.04;102203.03;5073160;28;20067;-66
2022/12/27 12:25:58;;;;;;;12.18;3.33;;;;;;;11.63;56.89;102217.59;5028338;28;20448;-66
2022/12/27 12:28:46;;;;;;;10.45;3.30;;;;;;;12.07;58.72;102199.09;5054160;28;20127;-66
2022/12/27 12:31:39;;;;;;;10.60;3.28;;;;;;;12.13;58.58;102184.97;5080911;28;20050;-65
2022/12/27 12:34:23;;;;;;;12.38;3.28;;;;;;;12.28;58.33;102189.56;5062713;28;20056;-64
2022/12/27 12:37:23;;;;;;;9.57;2.40;;;;;;;12.23;58.10;102182.16;5055204;28;20055;-65
2022/12/27 12:39:54;;;;;;;10.55;3.03;;;;;;;12.48;58.84;102169.22;5070107;28;20049;-65
2022/12/27 12:42:55;;;;;;;10.90;2.50;;;;;;;12.56;58.14;102168.56;5085225;28;20475;-66
2022/12/27 12:45:35;;;;;;;12.45;2.83;;;;;;;12.57;57.95;102156.41;5076917;28;20059;-66
2022/12/27 12:48:21;;;;;;;11.60;2.80;;;;;;;12.72;57.00;102156.25;5081004;28;20048;-66
2022/12/27 12:51:11;;;;;;;20.48;7.75;;;;;;;12.74;57.90;102149.31;5067599;28;20044;-67
2022/12/27 12:53:50;;;;;;;16.52;6.53;;;;;;;12.80;57.91;102150.06;5069366;28;21040;-66
2022/12/27 12:56:29;;;;;;;15.90;6.22;;;;;;;12.83;57.24;102142.00;5046822;28;20055;-65
2022/12/27 12:59:06;;;;;;;17.20;5.78;;;;;;;12.80;58.04;102131.53;5076430;28;20056;-65
2022/12/27 13:02:07;;;;;;;13.68;4.18;;;;;;;12.91;57.67;102132.25;5057989;28;20480;-63
2022/12/27 13:04:44;;;;;;;10.02;3.70;;;;;;;12.88;56.63;102136.44;5073375;28;20051;-64
2022/12/27 13:07:15;;;;;;;9.77;3.65;;;;;;;12.55;56.40;102129.06;5095822;28;20048;-65
2022/12/27 13:09:55;;;;;;;20.83;8.00;;;;;;;12.63;58.26;102133.94;5105363;28;20377;-65
2022/12/27 13:12:36;;;;;;;19.25;8.90;;;;;;;12.58;58.11;102122.94;5079143;28;20055;-66
2022/12/27 13:15:09;;;;;;;11.73;4.45;;;;;;;12.88;57.72;102128.16;5095288;28;20052;-65
2022/12/27 13:18:01;;;;;;;12.90;4.25;;;;;;;12.92;57.87;102120.88;5094773;28;20058;-65
2022/12/27 13:20:56;;;;;;;18.88;3.75;;;;;;;12.84;57.25;102120.72;5077228;28;20155;-65
2022/12/27 13:23:45;;;;;;;11.98;3.38;;;;;;;12.83;56.73;102117.13;5067112;28;20048;-64
2022/12/27 13:26:37;;;;;;;10.27;3.78;;;;;;;12.94;57.44;102115.06;5099988;28;20047;-67
2022/12/27 13:29:39;;;;;;;9.02;3.17;;;;;;;12.89;57.26;102107.66;5093544;28;20036;-65
2022/12/27 13:32:54;;;;;;;10.48;2.83;;;;;;;12.82;57.19;102109.94;5102068;28;20049;-65
2022/12/27 13:36:00;;;;;;;12.65;4.47;;;;;;;12.91;56.73;102094.38;5042349;28;20118;-65
2022/12/27 13:38:34;;;;;;;11.52;4.22;;;;;;;13.00;56.72;102087.06;5098284;28;20047;-65